Terminal Aerodrome Forecast
Issued by NWS Shreveport, LA

Home | Current Version | Previous Version | Text Only | Print | Product List | Glossary On
Versions: 1 2 3 4 5 6 7 8 9 10 11 12 13 14 15
000
FTUS44 KSHV 281136
TAFTYR
TAF
KTYR 281136Z 2812/2912 22012KT P6SM SCT140 BKN250
     FM281700 23012KT P6SM SCT050 SCT140 BKN250
     FM290000 22008KT P6SM SCT080 SCT150 BKN250
     FM290600 19006KT P6SM BKN080 BKN250=

USA.gov is the U.S. government's official web portal to all federal, state and local government web resources and services.